European Diplomat — ZCDD4 — position and weather

sailwx.info

Track history (hours):
 
Tides and Currents Weather Stations Pressure Air Temp Water Temp Dewpoint Dewpoint Depression Visibility Wind Speed Wind Dir Waves Ship Positions

European Diplomat

Operator: P & O Irish Sea Ltd

Last reported at 2010-May-31 09:57 UTC. Time now 2019-Jul-20 14:26 UTC.
Position N 18°27' W 066°05'.
Warning: this ship's position is years out of date!

Length 151 m; draft 0.68 m.

Type: Passenger vessel. MMSI: 310356000.

Date/timePositionNaut miles runAvg speedWind from/ knotsBaromVisibWave heightAir tempDewpointWater temp
2010-May-31 09:57N 18°27' W 066°05'0 0.3
2010-May-31 09:11N 18°27' W 066°05'9 6.3
2010-May-31 07:48N 18°34' W 066°09'  
2010-May-24 22:27N 18°29' W 066°08'3 0.9
2010-May-24 19:08N 18°27' W 066°05'0 0.0
2010-May-24 17:14N 18°27' W 066°05'0 0.0
2010-May-24 14:32N 18°27' W 066°05'0 0.0
2010-May-24 12:50N 18°27' W 066°05'0 0.0
2010-May-24 10:56N 18°27' W 066°05'0 0.0
2010-May-24 09:30N 18°27' W 066°05'4 4.1
2010-May-24 08:25N 18°31' W 066°07'17 8.2
2010-May-24 06:21N 18°35' W 066°24'  
Track history (hours):
 
Tides and Currents Weather Stations Pressure Air Temp Water Temp Dewpoint Dewpoint Depression Visibility Wind Speed Wind Dir Waves Ship Positions

European Diplomat

Operator: P & O Irish Sea Ltd

Last reported at 2010-May-31 09:57 UTC. Time now 2019-Jul-20 14:26 UTC.
Position N 18°27' W 066°05'.
Warning: this ship's position is years out of date!

Length 151 m; draft 0.68 m.

Type: Passenger vessel. MMSI: 310356000.

Date/timePositionNaut miles runAvg speedWind from/ knotsBaromVisibWave heightAir tempDewpointWater temp
2010-May-31 09:57N 18°27' W 066°05'0 0.3
2010-May-31 09:11N 18°27' W 066°05'9 6.3
2010-May-31 07:48N 18°34' W 066°09'  
2010-May-24 22:27N 18°29' W 066°08'3 0.9
2010-May-24 19:08N 18°27' W 066°05'0 0.0
2010-May-24 17:14N 18°27' W 066°05'0 0.0
2010-May-24 14:32N 18°27' W 066°05'0 0.0
2010-May-24 12:50N 18°27' W 066°05'0 0.0
2010-May-24 10:56N 18°27' W 066°05'0 0.0
2010-May-24 09:30N 18°27' W 066°05'4 4.1
2010-May-24 08:25N 18°31' W 066°07'17 8.2
2010-May-24 06:21N 18°35' W 066°24'  

Dump ship's entire track history